createdAt,value
2018-09-17T05:08:28.811Z,28.13
2018-09-17T05:26:14.897Z,61.88
2018-09-17T05:27:17.739Z,61.88
2018-09-17T05:28:11.911Z,67.50
2018-09-17T05:30:13.125Z,67.50
2018-09-17T05:31:12.441Z,73.13
2018-09-17T05:32:12.017Z,73.13
2018-09-17T05:33:17.114Z,73.13
2018-09-17T05:37:09.675Z,84.38
2018-09-17T05:40:18.054Z,90.00
2018-09-17T05:42:07.408Z,90.00
2018-09-17T05:43:06.969Z,95.63
2018-09-17T05:44:06.751Z,95.63
2018-09-17T05:47:23.416Z,101.25
2018-09-17T05:48:24.844Z,106.88
2018-09-17T05:49:49.168Z,106.88
2018-09-17T05:50:40.898Z,106.88
2018-09-17T05:51:24.331Z,112.50
2018-09-17T05:52:22.983Z,112.50
2018-09-17T05:53:24.139Z,112.50
2018-09-17T05:54:26.315Z,118.13
2018-09-17T05:55:24.238Z,118.13
2018-09-17T05:56:24.190Z,118.13
2018-09-17T05:57:24.402Z,123.75
2018-09-17T05:58:21.926Z,123.75
2018-09-17T05:59:21.988Z,129.38
2018-09-17T06:00:22.189Z,129.38
2018-09-17T06:01:22.168Z,129.38
2018-09-17T06:02:22.401Z,135.00
2018-09-17T06:03:22.627Z,135.00
2018-09-17T06:04:22.766Z,135.00
2018-09-17T06:05:22.925Z,140.63
2018-09-17T06:06:23.195Z,140.63
2018-09-17T06:07:23.291Z,146.25
2018-09-17T06:08:23.436Z,146.25
2018-09-17T06:09:23.594Z,151.88
2018-09-17T06:10:23.729Z,157.50
2018-09-17T06:11:24.098Z,157.50
2018-09-17T06:12:24.162Z,157.50
2018-09-17T06:13:24.236Z,163.13
2018-09-17T06:14:24.490Z,168.75
2018-09-17T06:15:24.753Z,174.38
2018-09-17T06:16:24.853Z,180.00
2018-09-17T06:17:25.072Z,185.63
2018-09-17T06:18:25.216Z,185.63
2018-09-17T06:19:25.428Z,191.25
2018-09-17T06:20:25.674Z,196.88
2018-09-17T06:21:25.867Z,196.88
2018-09-17T06:22:26.083Z,202.50
2018-09-17T06:23:26.321Z,208.13
2018-09-17T06:24:26.384Z,208.13
2018-09-17T06:25:28.633Z,213.75
2018-09-17T06:26:27.278Z,219.38
2018-09-17T06:27:44.454Z,225.00
2018-09-17T06:28:32.811Z,230.63
2018-09-17T06:29:32.594Z,230.63
2018-09-17T06:30:30.213Z,230.63
2018-09-17T06:31:30.777Z,236.25
2018-09-17T06:32:30.430Z,241.88
2018-09-17T06:33:30.853Z,247.50
2018-09-17T06:34:28.136Z,253.13
2018-09-17T06:35:28.131Z,253.13
2018-09-17T06:36:28.235Z,258.75
2018-09-17T06:37:28.360Z,264.38
2018-09-17T06:38:28.542Z,270.00
2018-09-17T06:39:28.731Z,275.63
2018-09-17T06:40:28.947Z,281.25
2018-09-17T06:41:29.279Z,281.25
2018-09-17T06:42:29.342Z,286.88
2018-09-17T06:43:29.577Z,292.50
2018-09-17T06:44:29.739Z,298.13
2018-09-17T06:45:29.865Z,303.75
2018-09-17T06:48:14.262Z,315.00
2018-09-17T06:49:24.470Z,320.63
2018-09-17T06:50:15.571Z,320.63
2018-09-17T06:51:15.712Z,320.63
2018-09-17T06:52:16.451Z,315.00
2018-09-17T06:53:16.621Z,315.00
2018-09-17T06:56:32.275Z,337.50
2018-09-17T06:57:33.364Z,343.13
2018-09-17T06:58:31.882Z,343.13
2018-09-17T06:59:31.688Z,337.50
2018-09-17T07:00:31.634Z,337.50
2018-09-17T07:01:31.777Z,343.13
2018-09-17T07:02:32.062Z,343.13
2018-09-17T07:03:32.179Z,348.75
2018-09-17T07:04:33.387Z,354.38
2018-09-17T07:05:32.558Z,354.38
2018-09-17T07:06:32.781Z,371.25
2018-09-17T07:07:32.893Z,376.88
2018-09-17T07:08:33.007Z,376.88
2018-09-17T07:09:33.479Z,376.88
2018-09-17T07:10:33.626Z,371.25
2018-09-17T07:11:33.871Z,371.25
2018-09-17T07:12:34.060Z,371.25
2018-09-17T07:13:34.365Z,371.25
2018-09-17T07:14:34.377Z,365.63
2018-09-17T07:15:34.544Z,360.00
2018-09-17T07:16:34.729Z,348.75
2018-09-17T07:17:34.792Z,348.75
2018-09-17T07:18:35.208Z,348.75
2018-09-17T07:19:35.310Z,348.75
2018-09-17T07:20:35.456Z,354.38
2018-09-17T07:22:48.689Z,343.13
2018-09-17T07:23:40.677Z,337.50
2018-09-17T07:24:38.220Z,331.88
2018-09-17T07:25:53.894Z,337.50
2018-09-17T07:26:39.055Z,337.50
2018-09-17T07:27:40.282Z,348.75
2018-09-17T07:28:43.322Z,354.38
2018-09-17T07:29:41.957Z,360.00
2018-09-17T07:30:39.900Z,348.75
2018-09-17T07:31:39.334Z,343.13
2018-09-17T07:32:37.995Z,331.88
2018-09-17T07:33:38.294Z,331.88
2018-09-17T07:35:39.223Z,348.75
2018-09-17T07:36:38.815Z,354.38
2018-09-17T07:37:38.800Z,360.00
2018-09-17T07:38:39.075Z,360.00
2018-09-17T07:39:40.084Z,360.00
2018-09-17T07:40:39.770Z,360.00
2018-09-17T07:41:39.594Z,348.75
2018-09-17T07:42:39.575Z,343.13
2018-09-17T07:43:39.945Z,348.75
2018-09-17T07:44:40.141Z,354.38
2018-09-17T07:45:40.719Z,365.63
2018-09-17T07:46:40.761Z,365.63
2018-09-17T07:48:41.346Z,371.25
2018-09-17T07:49:41.175Z,371.25
2018-09-17T07:50:40.819Z,376.88
2018-09-17T07:51:41.136Z,371.25
2018-09-17T07:52:41.268Z,376.88
2018-09-17T07:53:43.371Z,376.88
2018-09-17T07:54:43.256Z,388.13
2018-09-17T07:55:41.587Z,393.75
2018-09-17T07:56:41.835Z,399.38
2018-09-17T07:57:42.848Z,410.63
2018-09-17T07:58:42.551Z,416.25
2018-09-17T07:59:42.514Z,410.63
2018-09-17T08:00:42.888Z,410.63
2018-09-17T08:01:43.432Z,421.88
2018-09-17T08:02:43.149Z,421.88
2018-09-17T08:03:43.278Z,421.88
2018-09-17T08:04:43.398Z,427.50
2018-09-17T08:05:46.426Z,427.50
2018-09-17T08:06:44.159Z,427.50
2018-09-17T08:07:43.923Z,433.13
2018-09-17T08:08:44.079Z,438.75
2018-09-17T08:09:44.262Z,444.38
2018-09-17T08:10:46.312Z,455.63
2018-09-17T08:11:44.563Z,444.38
2018-09-17T08:12:44.650Z,455.63
2018-09-17T08:13:45.059Z,444.38
2018-09-17T08:14:45.501Z,450.00
2018-09-17T08:15:45.188Z,450.00
2018-09-17T08:16:45.685Z,444.38
2018-09-17T08:17:45.653Z,444.38
2018-09-17T08:18:45.973Z,433.13
2018-09-17T08:19:46.697Z,427.50
2018-09-17T08:20:47.160Z,421.88
2018-09-17T08:21:46.707Z,433.13
2018-09-17T08:22:47.198Z,450.00
2018-09-17T08:23:48.341Z,455.63
2018-09-17T08:25:00.430Z,466.88
2018-09-17T08:25:58.414Z,472.50
2018-09-17T08:26:47.200Z,478.13
2018-09-17T08:27:47.665Z,483.75
2018-09-17T08:28:48.036Z,489.38
2018-09-17T08:29:48.173Z,500.63
2018-09-17T08:30:48.333Z,506.25
2018-09-17T08:31:49.031Z,511.88
2018-09-17T08:32:49.102Z,517.50
2018-09-17T08:33:49.178Z,523.13
2018-09-17T08:34:50.043Z,534.38
2018-09-17T08:35:49.939Z,534.38
2018-09-17T08:36:49.576Z,540.00
2018-09-17T08:37:50.236Z,551.25
2018-09-17T08:38:50.240Z,551.25
2018-09-17T08:39:50.041Z,551.25
2018-09-17T08:40:49.630Z,556.88
2018-09-17T08:41:49.889Z,545.63
2018-09-17T08:42:50.035Z,540.00
2018-09-17T08:43:50.255Z,534.38
2018-09-17T08:44:50.447Z,534.38
2018-09-17T08:47:54.869Z,517.50
2018-09-17T08:48:55.226Z,523.13
2018-09-17T08:49:55.573Z,528.75
2018-09-17T08:50:55.602Z,534.38
2018-09-17T08:51:55.633Z,534.38
2018-09-17T08:52:55.839Z,534.38
2018-09-17T08:53:56.594Z,545.63
2018-09-17T08:55:03.562Z,551.25
2018-09-17T08:55:56.284Z,551.25
2018-09-17T08:56:56.905Z,556.88
2018-09-17T08:57:59.186Z,562.50
2018-09-17T08:58:57.087Z,573.75
2018-09-17T08:59:58.187Z,590.63
2018-09-17T09:01:01.833Z,601.88
2018-09-17T09:01:59.958Z,607.50
2018-09-17T09:02:55.280Z,607.50
2018-09-17T09:03:55.554Z,618.75
2018-09-17T09:04:55.933Z,618.75
2018-09-17T09:11:14.728Z,748.13
2018-09-17T09:12:14.054Z,1119.38
2018-09-17T09:13:14.068Z,1698.75
2018-09-17T09:14:14.191Z,2081.25
2018-09-17T09:15:15.716Z,1980.00
2018-09-17T09:16:14.852Z,2008.13
2018-09-17T09:17:15.076Z,2047.50
2018-09-17T09:18:12.685Z,1957.50
2018-09-17T09:19:12.715Z,2165.63
2018-09-17T09:20:17.534Z,2334.38
2018-09-17T09:21:12.985Z,2469.38
2018-09-17T09:22:18.650Z,2480.63
2018-09-17T09:23:14.997Z,2525.63
2018-09-17T09:24:13.728Z,2475.00
2018-09-17T09:25:14.273Z,2581.88
2018-09-17T09:26:13.951Z,2632.50
2018-09-17T09:27:14.971Z,2598.75
2018-09-17T09:28:14.486Z,2666.25
2018-09-17T09:29:14.388Z,2688.75
2018-09-17T09:30:16.295Z,2688.75
2018-09-17T09:31:15.068Z,2677.50
2018-09-17T09:40:08.766Z,2986.88
2018-09-17T10:18:02.309Z,3577.50
2018-09-17T10:25:41.541Z,3723.75
2018-09-17T10:30:49.031Z,3684.38
2018-09-17T10:33:35.695Z,3712.50
2018-09-17T10:34:29.831Z,3819.38
2018-09-17T13:09:34.547Z,2677.50
2018-09-17T13:10:34.849Z,2514.38
2018-09-17T13:11:39.165Z,2784.38
2018-09-17T13:12:35.720Z,2829.38
2018-09-17T13:42:38.271Z,2705.63
2018-09-17T13:43:38.487Z,2902.50
2018-09-17T13:44:37.275Z,2885.63
2018-09-17T13:45:37.363Z,2733.75
2018-09-17T13:46:37.577Z,2733.75
2018-09-17T13:47:37.721Z,2992.50
2018-09-17T13:48:37.969Z,3082.50
2018-09-17T13:49:38.137Z,3166.88
2018-09-17T13:50:38.306Z,2896.88
2018-09-17T13:51:38.450Z,2930.63
2018-09-17T13:52:38.577Z,2863.13
2018-09-17T13:53:38.851Z,2908.13
2018-09-17T13:54:38.897Z,2823.75
2018-09-17T13:55:39.137Z,2863.13
2018-09-17T13:56:39.338Z,2857.50
2018-09-17T13:57:39.535Z,2812.50
2018-09-17T13:58:39.690Z,2728.13
2018-09-17T13:59:41.325Z,2570.63
2018-09-17T14:00:40.423Z,2385.00
2018-09-17T14:01:41.027Z,2160.00
2018-09-17T14:02:41.181Z,2131.88
2018-09-17T14:03:40.918Z,2086.88
2018-09-17T14:04:41.276Z,1991.25
2018-09-17T14:05:42.949Z,1901.25
2018-09-17T14:06:41.612Z,1985.63
2018-09-17T14:07:41.647Z,1996.88
2018-09-17T14:08:41.582Z,2053.13
2018-09-17T14:09:41.839Z,2176.88
2018-09-17T14:10:41.951Z,2109.38
2018-09-17T14:11:42.164Z,2255.63
2018-09-17T14:12:42.313Z,2463.75
2018-09-17T14:13:42.501Z,2683.13
2018-09-17T14:14:42.634Z,2812.50
2018-09-17T14:15:42.920Z,2868.75
2018-09-17T14:16:43.036Z,2610.00
2018-09-17T14:17:43.303Z,2520.00
2018-09-17T14:18:43.455Z,2469.38
2018-09-17T14:19:43.936Z,2452.50
2018-09-17T14:20:44.950Z,2126.25
2018-09-17T14:21:44.026Z,1963.13
2018-09-17T14:22:44.551Z,1929.38
2018-09-17T14:23:44.356Z,1980.00
2018-09-17T14:24:44.721Z,1974.38
2018-09-17T14:25:44.885Z,1923.75
2018-09-17T14:26:44.999Z,1918.13
2018-09-17T14:27:45.413Z,1963.13
2018-09-17T14:28:45.576Z,1985.63
2018-09-17T14:29:46.154Z,1985.63
2018-09-17T14:30:47.322Z,2098.13
2018-09-17T14:31:45.983Z,2126.25
2018-09-17T14:32:47.317Z,2008.13
2018-09-17T14:33:46.666Z,1918.13
2018-09-17T14:34:46.955Z,1867.50
2018-09-17T14:35:46.989Z,1850.63
2018-09-17T14:36:47.787Z,1884.38
2018-09-17T14:37:47.041Z,1890.00
2018-09-17T14:38:47.597Z,1912.50
2018-09-17T14:39:48.270Z,1985.63
2018-09-17T14:40:48.446Z,1968.75
2018-09-17T14:41:48.701Z,1901.25
2018-09-17T14:42:47.886Z,1653.75
2018-09-17T14:43:48.276Z,1406.25
2018-09-17T14:44:48.373Z,1243.13
2018-09-17T14:45:48.606Z,1147.50
2018-09-17T14:46:49.049Z,1068.75
2018-09-17T14:47:49.119Z,1029.38
2018-09-17T14:48:49.121Z,990.00
2018-09-17T14:49:52.960Z,956.25
2018-09-17T14:50:50.412Z,928.13
2018-09-17T14:51:49.919Z,900.00
2018-09-17T14:52:50.275Z,877.50
2018-09-17T14:53:50.500Z,871.88
2018-09-17T14:54:50.461Z,843.75
2018-09-17T14:55:50.472Z,832.50
2018-09-17T14:56:50.851Z,826.88
2018-09-17T14:57:51.152Z,821.25
2018-09-17T14:58:51.689Z,821.25
2018-09-17T14:59:52.013Z,815.63
2018-09-17T15:00:51.329Z,838.13
2018-09-17T15:01:51.810Z,843.75
2018-09-17T15:02:51.645Z,849.38
2018-09-17T15:03:51.938Z,849.38
2018-09-17T15:04:52.227Z,855.00
2018-09-17T15:05:52.450Z,860.63
2018-09-17T15:06:52.401Z,871.88
2018-09-17T15:07:52.583Z,894.38
2018-09-17T15:08:52.746Z,939.38
2018-09-17T15:09:52.843Z,978.75
2018-09-17T15:10:53.000Z,1006.88
2018-09-17T15:11:53.221Z,1012.50
2018-09-17T15:12:53.501Z,984.38
2018-09-17T15:13:53.547Z,939.38
2018-09-17T15:14:53.853Z,945.00
2018-09-17T15:15:54.351Z,973.13
2018-09-17T15:16:54.584Z,916.88
2018-09-17T15:17:54.341Z,939.38
2018-09-17T15:18:54.553Z,961.88
2018-09-17T15:19:54.676Z,888.75
2018-09-17T15:20:54.725Z,793.13
2018-09-17T15:21:55.013Z,720.00
2018-09-17T15:22:55.114Z,680.63
2018-09-17T15:23:55.414Z,658.13
2018-09-17T15:24:55.546Z,641.25
2018-09-17T15:25:55.773Z,630.00
2018-09-17T15:26:55.861Z,618.75
2018-09-17T15:27:56.039Z,613.13
2018-09-17T15:28:56.242Z,601.88
2018-09-17T15:29:56.338Z,596.25
2018-09-17T15:30:56.563Z,585.00
2018-09-17T15:31:56.717Z,585.00
2018-09-17T15:32:56.869Z,579.38
2018-09-17T15:33:57.136Z,568.13
2018-09-17T15:34:57.291Z,562.50
2018-09-17T15:35:57.383Z,551.25
2018-09-17T15:36:57.653Z,545.63
2018-09-17T15:37:57.851Z,545.63
2018-09-17T15:39:07.586Z,545.63
2018-09-17T15:40:58.463Z,562.50
2018-09-17T15:41:58.599Z,573.75
2018-09-17T15:42:58.710Z,556.88
2018-09-17T15:43:58.922Z,540.00
2018-09-17T15:44:59.158Z,534.38
2018-09-17T15:45:59.303Z,523.13
2018-09-17T15:46:59.557Z,517.50
2018-09-17T15:47:59.629Z,517.50
2018-09-17T15:48:59.850Z,511.88
2018-09-17T15:49:59.965Z,506.25
2018-09-17T15:51:00.172Z,489.38
2018-09-17T15:52:00.243Z,483.75
2018-09-17T15:53:00.464Z,478.13
2018-09-17T15:54:00.583Z,472.50
2018-09-17T15:55:00.783Z,466.88
2018-09-17T15:56:01.258Z,461.25
2018-09-17T15:57:01.254Z,461.25
2018-09-17T15:58:01.277Z,450.00
2018-09-17T15:59:01.529Z,444.38
2018-09-17T16:00:01.656Z,433.13
2018-09-17T16:01:01.838Z,433.13
2018-09-17T16:02:01.990Z,416.25
2018-09-17T16:03:02.328Z,410.63
2018-09-17T16:04:02.423Z,399.38
2018-09-17T16:05:02.557Z,388.13
2018-09-17T16:06:02.750Z,382.50
2018-09-17T16:07:04.145Z,376.88
2018-09-17T16:08:05.924Z,365.63
2018-09-17T16:09:04.215Z,365.63
2018-09-17T16:10:07.053Z,360.00
2018-09-17T16:11:03.857Z,348.75
2018-09-17T16:13:08.278Z,337.50
2018-09-17T16:15:04.135Z,320.63
2018-09-17T16:16:04.375Z,315.00
2018-09-17T16:17:04.639Z,309.38
2018-09-17T16:18:04.688Z,298.13
2018-09-17T16:19:04.973Z,292.50
2018-09-17T16:20:05.154Z,286.88
2018-09-17T16:21:05.271Z,281.25
2018-09-17T16:22:05.453Z,275.63
2018-09-17T16:23:05.677Z,286.88
2018-09-17T16:24:05.713Z,298.13
2018-09-17T16:25:05.927Z,275.63
2018-09-17T16:26:06.143Z,264.38
2018-09-17T16:27:06.490Z,253.13
2018-09-17T16:28:06.581Z,247.50
2018-09-17T16:29:06.820Z,241.88
2018-09-17T16:30:06.891Z,241.88
2018-09-17T16:33:13.745Z,225.00
2018-09-17T16:34:13.593Z,219.38
2018-09-17T16:35:11.006Z,208.13
2018-09-17T16:36:11.451Z,202.50
2018-09-17T16:37:11.441Z,196.88
2018-09-17T16:38:11.647Z,196.88
2018-09-17T16:39:11.744Z,191.25
2018-09-17T16:40:11.983Z,191.25
2018-09-17T16:41:12.043Z,185.63
2018-09-17T16:42:12.214Z,180.00
2018-09-17T16:43:12.476Z,174.38
2018-09-17T16:44:12.799Z,168.75
2018-09-17T16:45:13.397Z,168.75
2018-09-17T16:47:13.275Z,157.50
2018-09-17T16:48:13.357Z,151.88
2018-09-17T16:49:13.649Z,146.25
2018-09-17T16:50:13.696Z,140.63
2018-09-17T16:51:13.913Z,135.00
2018-09-17T16:52:14.120Z,129.38
2018-09-17T16:56:21.051Z,112.50
2018-09-17T17:17:36.162Z,33.75
2018-09-17T17:22:01.411Z,22.50
2018-09-17T17:24:48.404Z,16.88
2018-09-17T17:25:46.323Z,16.88
2018-09-17T17:26:44.399Z,11.25
2018-09-17T17:27:43.952Z,11.25
2018-09-17T17:31:52.691Z,5.63
2018-09-17T17:32:52.035Z,5.63
2018-09-17T17:33:52.676Z,5.63
2018-09-17T17:34:52.686Z,5.63
2018-09-17T17:35:53.507Z,5.63
2018-09-17T17:36:55.019Z,5.63
2018-09-17T17:38:44.532Z,5.63
2018-09-17T17:40:33.080Z,0.00
2018-09-17T17:41:27.125Z,0.00
2018-09-17T17:42:26.338Z,0.00
2018-09-17T17:44:28.145Z,0.00
2018-09-17T17:45:27.862Z,0.00
2018-09-17T17:46:27.223Z,0.00
2018-09-17T17:47:28.268Z,0.00
2018-09-17T17:49:27.684Z,0.00
2018-09-17T17:50:28.941Z,0.00
2018-09-17T17:51:30.875Z,0.00
2018-09-17T17:52:33.307Z,0.00
2018-09-17T17:53:31.838Z,0.00
2018-09-17T17:56:28.645Z,0.00
2018-09-17T17:57:28.777Z,0.00
2018-09-17T17:58:28.922Z,0.00
2018-09-17T17:59:31.171Z,0.00
2018-09-17T18:00:31.262Z,0.00
2018-09-17T18:02:56.014Z,0.00
2018-09-17T18:03:58.942Z,0.00
2018-09-17T18:04:56.842Z,0.00
2018-09-17T18:05:57.468Z,0.00
2018-09-17T18:06:57.817Z,0.00
2018-09-17T18:07:57.216Z,0.00
2018-09-17T18:08:57.574Z,0.00
2018-09-17T18:09:58.231Z,0.00
2018-09-17T18:10:59.871Z,0.00
2018-09-17T18:12:00.262Z,0.00
2018-09-17T18:13:23.836Z,0.00
2018-09-17T18:15:11.931Z,0.00
2018-09-17T18:16:02.318Z,0.00
2018-09-17T18:19:08.708Z,0.00
2018-09-17T18:27:54.628Z,0.00
2018-09-17T18:28:47.283Z,0.00
2018-09-17T18:32:17.744Z,0.00
2018-09-17T19:23:13.060Z,0.00
2018-09-17T19:24:14.936Z,0.00
2018-09-17T19:25:18.285Z,0.00
2018-09-17T19:27:15.424Z,0.00
2018-09-17T19:28:20.405Z,0.00
2018-09-17T19:29:15.739Z,0.00
2018-09-17T19:31:13.323Z,0.00
2018-09-17T19:35:47.343Z,0.00
2018-09-17T19:44:11.851Z,0.00
2018-09-17T19:45:13.339Z,0.00
2018-09-17T21:04:10.518Z,0.00
2018-09-17T21:23:28.412Z,0.00
2018-09-17T21:27:34.445Z,0.00
2018-09-17T21:41:59.399Z,0.00
2018-09-17T21:42:47.186Z,0.00
2018-09-17T21:49:21.317Z,0.00
